Airfield :
LOGIN :

Register | Disclaimer

   EN    FR    IT 

 










Legend :    VFR   Marginal VFR   IFR   Intensive IFR   Very Intensive IFR
Visi :
Ceiling :
>= 8 km
>= 3000ft
5 to 8 km
1000 to 3000 ft
1500m to 5 km
500 to 1000 ft
800 to 1500m
200 to 500 ft
< 800m
< 200 ft
Symbols :   Thunderstorms  Fog  Heavy snow  Heavy precipitations  Wind > 20 kt
SIGMETs :     Misc.  Thunderstorms  Icing  Turbulence  Mountain Waves  Volcanic Ashes






- Airport Elevation : 502 ft
- IATA code : ORK


EICK - Cork

CURRENT METAR :
  • 060600Z 12006KT 9999 FEW010 BKN017 13/12 Q1012 NOSIG

EXPIRED METARs :
  • 060530Z 12006KT 9999 FEW010 BKN020 13/12 Q1012 NOSIG
  • 060500Z 13003KT 9999 FEW010 BKN020 12/11 Q1012 NOSIG
  • 060430Z 13003KT 9999 FEW005 BKN019 12/11 Q1012 TEMPO 2000 BKN003
  • 060400Z 19003KT 140V230 9999 FEW003 SCT012 BKN018 12/11 Q1012 TEMPO 2000 BKN003
  • 060330Z 26003KT 220V300 9999 FEW003 BKN010 BKN020 12/12 Q1012 TEMPO 2000 BKN003

TAF TAF EICK
Valid from the 06 at 06:00 until the 07 at 06:00 UTC


060500Z 0606/0706 15007KT 9999 FEW007 SCT020
PROB30
TEMPO 0606/0607 3000 BR BKN008
BECMG 0607/0609 BKN008
BECMG 0609/0611 19012KT
TEMPO 0609/0617 3000 BR BKN005
PROB30
TEMPO 0616/0619 1500 BKN003
BECMG 0617/0619 3000 BR BKN005
TEMPO 0619/0706 0500 FG BKN001
TEMPO 0703/0706 RA
PROB30
TEMPO 0704/0706 BKN020CB



MET'MAP, your aeronautical weather chart ! - Copyright ORBIFLY December 2007 - Disclaimer

ORBIFLY MET'MAP TEAM :

Programming & Development : Alexandra Zaïnal
Concept & original design : Baudouin d'Aumeries
Assistance for programming : Marc-Olivier Méhu
Technical & hardware support : Manuel Goepfert

Contact : metmap@orbifly.com




SOURCES & CREDITS :

   NOAA